Terminal Aerodrome Forecast
Issued by NWS Paducah, KY

Home | Current Version | Previous Version | Text Only | Print | Product List | Glossary On
Versions: 1 2 3 4 5 6 7 8 9 10 11 12 13 14 15 16 17
000
FTUS43 KPAH 290500
TAFEVV
TAF
KEVV 290527Z 2906/3006 18007KT P6SM BKN150 WS020/22045KT
     FM291200 19010G15KT P6SM BKN025 WS020/22050KT
     FM291600 20012G20KT 6SM -DZ BR SCT015 OVC020
     FM300000 20011KT P6SM OVC025=

USA.gov is the U.S. government's official web portal to all federal, state and local government web resources and services.